Time;durP1;ratioP1;P1;durP2;ratioP2;P2;SDS_P1;SDS_P2;PMS_P1;PMS_P2;Temp;Humidity;BMP_temperature;BMP_pressure;BME280_temperature;BME280_humidity;BME280_pressure;Samples;Min_cycle;Max_cycle;Signal;HPM_P1;HPM_P2
2022/07/12 00:02:04;;;;;;;0.00;0.00;;;21.50;80.20;;;;;;3971218;29;21567;-64
2022/07/12 00:04:26;;;;;;;0.00;0.00;;;21.50;80.30;;;;;;3959982;29;20047;-65
2022/07/12 00:06:48;;;;;;;0.52;0.52;;;21.50;80.30;;;;;;3957387;29;20058;-64
2022/07/12 00:09:11;;;;;;;0.08;0.08;;;21.50;80.30;;;;;;3943515;29;20071;-65
2022/07/12 00:11:33;;;;;;;0.00;0.00;;;21.50;80.30;;;;;;3957163;29;20054;-65
2022/07/12 00:13:55;;;;;;;0.00;0.00;;;21.50;80.40;;;;;;3957009;29;20047;-65
2022/07/12 00:16:17;;;;;;;0.00;0.00;;;21.50;80.30;;;;;;3957089;29;20062;-65
2022/07/12 00:18:39;;;;;;;0.00;0.00;;;21.50;80.30;;;;;;3964349;29;20061;-66
2022/07/12 00:21:01;;;;;;;0.00;0.00;;;21.50;80.30;;;;;;3971795;29;20061;-65
2022/07/12 00:23:23;;;;;;;0.00;0.00;;;21.50;80.30;;;;;;3971087;29;20145;-66
2022/07/12 00:25:47;;;;;;;0.00;0.00;;;21.50;80.30;;;;;;3962567;29;20112;-65
2022/07/12 00:28:10;;;;;;;0.00;0.00;;;21.50;80.30;;;;;;3943253;29;20066;-66
2022/07/12 00:30:32;;;;;;;0.00;0.00;;;21.50;80.30;;;;;;3956972;29;20055;-65
2022/07/12 00:32:54;;;;;;;0.00;0.00;;;21.50;80.30;;;;;;3970002;29;20101;-66
2022/07/12 00:35:16;;;;;;;0.00;0.00;;;21.50;80.20;;;;;;3972001;29;20138;-65
2022/07/12 00:37:38;;;;;;;0.00;0.00;;;21.50;80.30;;;;;;3971362;29;20069;-65
2022/07/12 00:40:00;;;;;;;0.00;0.00;;;21.50;80.30;;;;;;3971895;29;20103;-65
2022/07/12 00:42:24;;;;;;;0.00;0.00;;;21.50;80.30;;;;;;3971409;29;20057;-65
2022/07/12 00:44:46;;;;;;;0.00;0.00;;;21.50;80.30;;;;;;3971803;29;20481;-65
2022/07/12 00:47:08;;;;;;;0.00;0.00;;;21.50;80.20;;;;;;3954060;29;20078;-65
2022/07/12 00:49:31;;;;;;;0.00;0.00;;;21.50;80.30;;;;;;3971780;29;20088;-65
2022/07/12 00:51:54;;;;;;;0.03;0.03;;;21.50;80.20;;;;;;3971485;29;20099;-65
2022/07/12 00:54:16;;;;;;;0.15;0.15;;;21.50;80.30;;;;;;3971049;29;20054;-64
2022/07/12 00:56:38;;;;;;;0.00;0.00;;;21.50;80.40;;;;;;3964617;29;20066;-65
2022/07/12 00:59:02;;;;;;;0.00;0.00;;;21.50;80.30;;;;;;3971306;29;20410;-64
2022/07/12 01:01:24;;;;;;;0.63;0.63;;;21.50;80.30;;;;;;3942381;30;20257;-66
2022/07/12 01:03:47;;;;;;;0.70;0.70;;;21.50;80.30;;;;;;3956173;30;20193;-65
2022/07/12 01:06:09;;;;;;;0.00;0.00;;;21.50;80.30;;;;;;3957257;29;20176;-66
2022/07/12 01:08:32;;;;;;;0.05;0.05;;;21.50;80.30;;;;;;3956128;29;20051;-65
2022/07/12 01:10:56;;;;;;;0.00;0.00;;;21.50;81.10;;;;;;3957484;29;20059;-65
2022/07/12 01:13:18;;;;;;;0.20;0.20;;;21.50;80.30;;;;;;3956226;29;20070;-65
2022/07/12 01:15:43;;;;;;;0.10;0.10;;;21.50;80.40;;;;;;3956049;29;20079;-65
2022/07/12 01:18:05;;;;;;;0.40;0.40;;;21.50;80.30;;;;;;3958177;29;20058;-65
2022/07/12 01:20:28;;;;;;;0.00;0.00;;;21.50;80.40;;;;;;3970985;29;20073;-65
2022/07/12 01:22:53;;;;;;;0.00;0.00;;;21.50;80.30;;;;;;3970931;29;20058;-64
2022/07/12 01:25:16;;;;;;;0.00;0.00;;;21.50;80.30;;;;;;3942380;30;20059;-65
2022/07/12 01:27:39;;;;;;;0.00;0.00;;;21.50;80.30;;;;;;3956463;30;20066;-65
2022/07/12 01:30:03;;;;;;;0.00;0.00;;;21.50;80.30;;;;;;3942241;30;20458;-65
2022/07/12 01:32:25;;;;;;;0.00;0.00;;;21.50;80.40;;;;;;3956219;30;20051;-65
2022/07/12 01:34:48;;;;;;;0.00;0.00;;;21.50;80.40;;;;;;3942299;30;20056;-66
2022/07/12 01:37:10;;;;;;;0.00;0.00;;;21.50;80.30;;;;;;3956291;30;20095;-65
2022/07/12 01:39:33;;;;;;;0.00;0.00;;;21.50;80.30;;;;;;3956546;29;20573;-65
2022/07/12 01:41:56;;;;;;;0.00;0.00;;;21.50;80.30;;;;;;3970747;29;20575;-65
2022/07/12 01:44:18;;;;;;;0.00;0.00;;;21.50;80.30;;;;;;3944564;29;20052;-65
2022/07/12 01:46:40;;;;;;;0.00;0.00;;;21.50;80.30;;;;;;3942361;29;20062;-65
2022/07/12 01:49:03;;;;;;;0.00;0.00;;;21.40;80.30;;;;;;3955330;29;20067;-65
2022/07/12 01:51:25;;;;;;;0.00;0.00;;;21.50;80.30;;;;;;3956745;29;20616;-64
2022/07/12 01:53:47;;;;;;;0.00;0.00;;;21.40;80.30;;;;;;3970526;29;20119;-65
2022/07/12 01:56:10;;;;;;;0.43;0.43;;;21.40;80.30;;;;;;3970544;29;20461;-64
2022/07/12 01:58:33;;;;;;;0.00;0.00;;;21.50;80.40;;;;;;3955767;30;20068;-64
2022/07/12 02:00:55;;;;;;;0.00;0.00;;;21.40;80.30;;;;;;3955748;30;20062;-65
2022/07/12 02:03:18;;;;;;;0.00;0.00;;;21.40;80.30;;;;;;3961190;29;20047;-65
2022/07/12 02:05:40;;;;;;;0.00;0.00;;;21.40;80.30;;;;;;3970509;29;20043;-66
2022/07/12 02:08:02;;;;;;;0.00;0.00;;;21.40;80.20;;;;;;3970554;29;20063;-66
2022/07/12 02:10:24;;;;;;;0.00;0.00;;;21.40;80.30;;;;;;3970013;29;20419;-66
2022/07/12 02:12:47;;;;;;;0.00;0.00;;;21.40;80.20;;;;;;3970557;29;20100;-65
2022/07/12 02:15:11;;;;;;;0.00;0.00;;;21.40;80.30;;;;;;3970125;29;20077;-65
2022/07/12 02:17:33;;;;;;;0.00;0.00;;;21.40;80.30;;;;;;3959229;29;20066;-66
2022/07/12 02:19:55;;;;;;;0.00;0.00;;;21.40;80.20;;;;;;3969844;29;20115;-66
2022/07/12 02:22:17;;;;;;;0.00;0.00;;;21.40;80.20;;;;;;3970572;29;20078;-65
2022/07/12 02:24:39;;;;;;;0.00;0.00;;;21.40;80.30;;;;;;3970497;29;20053;-66
2022/07/12 02:27:01;;;;;;;0.17;0.17;;;21.40;80.30;;;;;;3968007;29;20443;-66
2022/07/12 02:29:24;;;;;;;0.00;0.00;;;21.40;80.20;;;;;;3958119;29;20420;-65
2022/07/12 02:31:46;;;;;;;0.00;0.00;;;21.40;80.30;;;;;;3958758;29;20139;-66
2022/07/12 02:34:08;;;;;;;0.00;0.00;;;21.40;80.30;;;;;;3958328;29;20066;-65
2022/07/12 02:36:30;;;;;;;0.00;0.00;;;21.40;80.30;;;;;;3958398;29;20085;-65
2022/07/12 02:38:52;;;;;;;0.00;0.00;;;21.40;80.30;;;;;;3966867;29;20074;-65
2022/07/12 02:41:14;;;;;;;0.00;0.00;;;21.40;80.30;;;;;;3973396;29;20055;-64
2022/07/12 02:43:37;;;;;;;0.05;0.05;;;21.40;80.30;;;;;;3973004;29;20543;-65
2022/07/12 02:46:06;;;;;;;0.00;0.00;;;21.40;80.40;;;;;;3973375;29;20057;-64
2022/07/12 02:48:28;;;;;;;0.00;0.00;;;21.40;80.30;;;;;;3973139;29;20078;-64
2022/07/12 02:50:51;;;;;;;0.00;0.00;;;21.40;80.30;;;;;;3972953;29;20074;-65
2022/07/12 02:53:13;;;;;;;0.00;0.00;;;21.40;80.30;;;;;;3958173;30;20589;-64
2022/07/12 02:55:36;;;;;;;0.63;0.63;;;21.40;80.50;;;;;;3944298;30;20569;-66
2022/07/12 02:57:58;;;;;;;0.00;0.00;;;21.40;80.30;;;;;;3962272;29;20053;-64
2022/07/12 03:00:20;;;;;;;0.00;0.00;;;21.40;80.40;;;;;;3972831;29;20055;-66
2022/07/12 03:02:43;;;;;;;0.00;0.00;;;21.40;80.40;;;;;;3972626;29;20134;-64
2022/07/12 03:05:06;;;;;;;0.00;0.00;;;21.40;80.40;;;;;;3972437;29;20200;-65
2022/07/12 03:07:28;;;;;;;0.00;0.00;;;21.30;80.40;;;;;;3971718;29;20170;-64
2022/07/12 03:09:50;;;;;;;0.00;0.00;;;21.40;80.40;;;;;;3963581;29;20102;-65
2022/07/12 03:12:13;;;;;;;0.00;0.00;;;21.40;80.40;;;;;;3972865;29;20449;-64
2022/07/12 03:14:34;;;;;;;0.00;0.00;;;21.40;80.40;;;;;;3972906;29;20078;-65
2022/07/12 03:16:56;;;;;;;0.00;0.00;;;21.30;80.40;;;;;;3973134;29;20065;-65
2022/07/12 03:19:20;;;;;;;1.33;1.30;;;21.30;80.40;;;;;;3972571;29;20467;-65
2022/07/12 03:21:42;;;;;;;0.00;0.00;;;21.40;80.50;;;;;;3972915;29;20153;-65
2022/07/12 03:24:04;;;;;;;0.00;0.00;;;21.30;80.40;;;;;;3970683;29;20055;-65
2022/07/12 03:26:26;;;;;;;0.00;0.00;;;21.40;80.50;;;;;;3972489;29;20137;-64
2022/07/12 03:28:48;;;;;;;0.00;0.00;;;21.30;80.40;;;;;;3972151;29;20082;-66
2022/07/12 03:31:10;;;;;;;0.47;0.47;;;21.30;80.40;;;;;;3972266;29;20475;-65
2022/07/12 03:33:32;;;;;;;0.00;0.00;;;21.40;80.50;;;;;;3957268;29;20573;-65
2022/07/12 03:35:56;;;;;;;0.00;0.00;;;21.30;80.40;;;;;;3956981;29;20135;-65
2022/07/12 03:38:18;;;;;;;0.32;0.32;;;21.40;80.50;;;;;;3957482;29;20646;-65
2022/07/12 03:40:40;;;;;;;0.00;0.00;;;21.30;79.60;;;;;;3969641;29;20502;-65
2022/07/12 03:43:02;;;;;;;0.10;0.10;;;21.30;80.40;;;;;;3972096;29;20080;-66
2022/07/12 03:45:24;;;;;;;0.00;0.00;;;21.30;80.40;;;;;;3958809;29;20174;-65
2022/07/12 03:47:48;;;;;;;0.00;0.00;;;21.30;80.40;;;;;;3958559;29;20078;-65
2022/07/12 03:50:12;;;;;;;0.00;0.00;;;21.30;80.50;;;;;;3972587;29;20532;-65
2022/07/12 03:52:36;;;;;;;0.00;0.00;;;21.30;80.50;;;;;;3972308;29;20064;-65
2022/07/12 03:54:58;;;;;;;0.00;0.00;;;21.30;80.50;;;;;;3970717;29;20125;-65
2022/07/12 03:57:19;;;;;;;0.00;0.00;;;21.30;80.50;;;;;;3971458;29;20146;-66
2022/07/12 03:59:41;;;;;;;0.00;0.00;;;21.30;80.50;;;;;;3966121;29;20059;-65
2022/07/12 04:02:03;;;;;;;0.00;0.00;;;21.30;80.50;;;;;;3958017;29;20127;-65
2022/07/12 04:04:25;;;;;;;0.00;0.00;;;21.30;80.60;;;;;;3972034;29;20050;-64
2022/07/12 04:06:47;;;;;;;0.00;0.00;;;21.30;80.60;;;;;;3972069;29;20465;-65
2022/07/12 04:09:11;;;;;;;0.00;0.00;;;21.30;80.60;;;;;;3957201;30;20492;-65
2022/07/12 04:11:33;;;;;;;0.15;0.15;;;21.30;80.60;;;;;;3957370;30;20058;-65
2022/07/12 04:13:54;;;;;;;0.00;0.00;;;21.30;80.60;;;;;;3957100;30;20067;-65
2022/07/12 04:16:17;;;;;;;0.00;0.00;;;21.30;80.60;;;;;;3957178;30;20063;-65
2022/07/12 04:18:39;;;;;;;0.00;0.00;;;21.30;80.60;;;;;;3956838;30;20062;-66
2022/07/12 04:21:01;;;;;;;0.60;0.60;;;21.30;80.60;;;;;;3957193;30;20055;-64
2022/07/12 04:23:24;;;;;;;0.00;0.00;;;21.30;80.60;;;;;;3956072;29;20818;-64
2022/07/12 04:25:47;;;;;;;0.00;0.00;;;21.30;80.60;;;;;;3972131;29;20054;-64
2022/07/12 04:28:09;;;;;;;0.00;0.00;;;21.30;80.60;;;;;;3971602;29;20084;-65
2022/07/12 04:30:31;;;;;;;0.95;0.95;;;21.30;80.60;;;;;;3972022;29;20053;-64
2022/07/12 04:32:54;;;;;;;0.00;0.00;;;21.30;80.60;;;;;;3971792;29;20065;-64
2022/07/12 04:35:16;;;;;;;0.00;0.00;;;21.30;81.50;;;;;;3971038;29;20050;-64
2022/07/12 04:37:39;;;;;;;0.00;0.00;;;21.30;80.60;;;;;;3970510;29;20077;-65
2022/07/12 04:40:00;;;;;;;0.00;0.00;;;21.30;80.60;;;;;;3958140;29;20056;-70
2022/07/12 04:42:24;;;;;;;0.00;0.00;;;21.30;80.60;;;;;;3971234;29;20062;-69
2022/07/12 04:44:46;;;;;;;0.00;0.00;;;21.30;80.60;;;;;;3971196;29;20216;-70
2022/07/12 04:47:09;;;;;;;0.00;0.00;;;21.30;80.70;;;;;;3971257;29;20062;-69
2022/07/12 04:49:32;;;;;;;0.00;0.00;;;21.30;81.00;;;;;;3971466;29;20146;-70
2022/07/12 04:51:54;;;;;;;0.00;0.00;;;21.30;80.60;;;;;;3960975;29;20438;-69
2022/07/12 04:54:16;;;;;;;1.65;1.55;;;21.30;80.70;;;;;;3956862;29;20511;-70
2022/07/12 04:56:38;;;;;;;0.57;0.57;;;21.20;80.60;;;;;;3956268;29;20142;-70
2022/07/12 04:59:02;;;;;;;0.00;0.00;;;21.30;80.70;;;;;;3956435;29;20105;-72
2022/07/12 05:01:25;;;;;;;0.00;0.00;;;21.30;81.10;;;;;;3956458;29;20411;-70
2022/07/12 05:03:47;;;;;;;0.30;0.20;;;21.30;81.20;;;;;;3956209;29;20047;-70
2022/07/12 05:06:08;;;;;;;0.00;0.00;;;21.30;81.00;;;;;;3958024;29;20062;-69
2022/07/12 05:08:31;;;;;;;0.00;0.00;;;21.30;80.80;;;;;;3955548;29;20055;-69
2022/07/12 05:10:53;;;;;;;0.00;0.00;;;21.30;80.70;;;;;;3965587;29;20156;-69
2022/07/12 05:13:15;;;;;;;0.43;0.43;;;21.30;80.70;;;;;;3967810;29;20054;-70
2022/07/12 05:15:39;;;;;;;0.00;0.00;;;21.30;80.60;;;;;;3971029;29;20554;-71
2022/07/12 05:18:01;;;;;;;0.00;0.00;;;21.30;80.60;;;;;;3965394;29;20163;-69
2022/07/12 05:20:23;;;;;;;0.00;0.00;;;21.30;80.60;;;;;;3956117;29;20058;-69
2022/07/12 05:22:45;;;;;;;0.00;0.00;;;21.20;80.50;;;;;;3956648;29;20059;-69
2022/07/12 05:25:08;;;;;;;0.30;0.30;;;21.30;80.50;;;;;;3955908;29;20412;-69
2022/07/12 05:27:30;;;;;;;0.00;0.00;;;21.30;80.60;;;;;;3957756;29;20055;-69
2022/07/12 05:29:53;;;;;;;0.00;0.00;;;21.30;80.70;;;;;;3955485;29;20059;-70
2022/07/12 05:32:16;;;;;;;0.00;0.00;;;21.20;80.70;;;;;;3956569;29;20079;-70
2022/07/12 05:34:39;;;;;;;0.00;0.00;;;21.20;80.50;;;;;;3967424;29;20050;-70
2022/07/12 05:37:01;;;;;;;0.00;0.00;;;21.20;80.70;;;;;;3970960;29;20145;-70
2022/07/12 05:39:23;;;;;;;0.00;0.00;;;21.20;80.90;;;;;;3970493;29;20560;-69
2022/07/12 05:41:46;;;;;;;0.00;0.00;;;21.30;81.10;;;;;;3969582;29;20104;-70
2022/07/12 05:44:08;;;;;;;0.00;0.00;;;21.20;81.00;;;;;;3961574;29;20059;-69
2022/07/12 05:46:30;;;;;;;0.00;0.00;;;21.20;80.90;;;;;;3971185;29;20138;-69
2022/07/12 05:48:54;;;;;;;0.47;0.30;;;21.30;80.90;;;;;;3970679;29;20135;-68
2022/07/12 05:53:56;;;;;;;0.00;0.00;;;21.30;80.80;;;;;;3956231;30;20062;-70
2022/07/12 05:56:19;;;;;;;0.00;0.00;;;21.30;80.80;;;;;;3955109;30;20047;-69
2022/07/12 05:58:41;;;;;;;0.00;0.00;;;21.30;80.70;;;;;;3955920;29;20473;-69
2022/07/12 06:01:03;;;;;;;0.00;0.00;;;21.20;80.60;;;;;;3957956;30;20056;-68
2022/07/12 06:03:24;;;;;;;0.00;0.00;;;21.30;80.70;;;;;;3946366;30;20070;-69
2022/07/12 06:05:48;;;;;;;0.00;0.00;;;21.30;80.70;;;;;;3963326;29;20070;-69
2022/07/12 06:08:10;;;;;;;0.00;0.00;;;21.20;80.50;;;;;;3973725;29;20119;-69
2022/07/12 06:10:33;;;;;;;0.00;0.00;;;21.20;80.50;;;;;;3973694;29;20119;-69
2022/07/12 06:12:55;;;;;;;0.00;0.00;;;21.30;80.50;;;;;;3974213;29;20122;-70
2022/07/12 06:15:17;;;;;;;0.00;0.00;;;21.30;81.50;;;;;;3973317;29;20493;-69
2022/07/12 06:17:40;;;;;;;0.00;0.00;;;21.30;80.60;;;;;;3964383;29;20051;-69
2022/07/12 06:20:04;;;;;;;0.00;0.00;;;21.30;80.50;;;;;;3958355;29;20578;-68
2022/07/12 06:22:27;;;;;;;0.00;0.00;;;21.30;80.50;;;;;;3958874;29;20054;-69
2022/07/12 06:24:49;;;;;;;0.00;0.00;;;21.30;80.50;;;;;;3958569;29;20127;-69
2022/07/12 06:27:11;;;;;;;0.00;0.00;;;21.30;80.50;;;;;;3959129;29;20074;-69
2022/07/12 06:29:34;;;;;;;0.00;0.00;;;21.30;80.40;;;;;;3958438;29;20130;-68
2022/07/12 06:31:56;;;;;;;0.15;0.15;;;21.30;80.40;;;;;;3958655;29;20051;-69
2022/07/12 06:34:18;;;;;;;0.00;0.00;;;21.30;80.40;;;;;;3958615;29;20136;-69
2022/07/12 06:36:43;;;;;;;0.00;0.00;;;21.30;80.40;;;;;;3958375;29;20054;-69
2022/07/12 06:39:06;;;;;;;0.10;0.10;;;21.30;80.40;;;;;;3958562;29;20081;-69
2022/07/12 06:41:29;;;;;;;0.00;0.00;;;21.30;80.30;;;;;;3958189;29;20120;-69
2022/07/12 06:43:51;;;;;;;0.20;0.20;;;21.40;80.30;;;;;;3958288;29;20051;-69
2022/07/12 06:46:13;;;;;;;0.10;0.10;;;21.40;80.30;;;;;;3958295;29;20097;-69
2022/07/12 06:48:35;;;;;;;0.00;0.00;;;21.40;80.30;;;;;;3958429;29;20054;-69
2022/07/12 06:50:57;;;;;;;0.45;0.45;;;21.40;80.20;;;;;;3944802;29;20071;-69
2022/07/12 06:53:20;;;;;;;0.00;0.00;;;21.40;80.20;;;;;;3965495;29;20054;-69
2022/07/12 06:55:45;;;;;;;0.20;0.20;;;21.40;80.20;;;;;;3960904;29;20112;-69
2022/07/12 06:58:06;;;;;;;0.40;0.40;;;21.40;80.10;;;;;;3958118;29;20044;-69
2022/07/12 07:00:28;;;;;;;0.00;0.00;;;21.50;80.10;;;;;;3944448;30;20178;-69
2022/07/12 07:02:50;;;;;;;0.00;0.00;;;21.50;79.90;;;;;;3957721;30;20070;-68
2022/07/12 07:05:15;;;;;;;0.00;0.00;;;21.50;79.90;;;;;;3958124;30;20059;-69
2022/07/12 07:07:37;;;;;;;0.00;0.00;;;21.50;79.80;;;;;;3952079;29;20138;-69
2022/07/12 07:09:59;;;;;;;0.00;0.00;;;21.60;79.70;;;;;;3958044;29;20074;-69
2022/07/12 07:12:23;;;;;;;0.00;0.00;;;21.60;79.60;;;;;;3957437;29;20528;-69
2022/07/12 07:14:45;;;;;;;0.00;0.00;;;21.70;80.30;;;;;;3957899;29;20458;-69
2022/07/12 07:17:08;;;;;;;0.00;0.00;;;21.70;79.20;;;;;;3960812;29;20104;-68
2022/07/12 07:19:30;;;;;;;0.20;0.20;;;21.80;78.90;;;;;;3972198;29;20061;-70
2022/07/12 07:21:51;;;;;;;0.00;0.00;;;21.70;78.80;;;;;;3972491;29;20086;-68
2022/07/12 07:24:14;;;;;;;0.20;0.20;;;21.80;78.60;;;;;;3972929;29;20161;-69
2022/07/12 07:26:36;;;;;;;0.00;0.00;;;21.80;78.30;;;;;;3972212;29;20097;-68
2022/07/12 07:31:39;;;;;;;0.00;0.00;;;21.90;78.80;;;;;;3965621;29;20142;-69
2022/07/12 07:34:01;;;;;;;0.00;0.00;;;22.00;77.80;;;;;;3970602;29;20081;-69
2022/07/12 07:36:23;;;;;;;0.10;0.10;;;22.00;78.10;;;;;;3972075;29;20058;-69
2022/07/12 07:38:45;;;;;;;0.00;0.00;;;22.00;78.30;;;;;;3966772;29;20534;-69
2022/07/12 07:41:07;;;;;;;0.00;0.00;;;22.10;78.10;;;;;;3972653;29;20051;-69
2022/07/12 07:43:29;;;;;;;0.00;0.00;;;22.10;77.80;;;;;;3972522;29;20108;-69
2022/07/12 07:45:54;;;;;;;0.05;0.05;;;22.20;77.50;;;;;;3972605;29;20065;-69
2022/07/12 07:48:16;;;;;;;1.50;1.50;;;22.20;77.30;;;;;;3972338;29;20459;-69
2022/07/12 07:50:47;;;;;;;0.00;0.00;;;22.30;77.10;;;;;;3972254;29;20046;-69
2022/07/12 07:53:09;;;;;;;0.00;0.00;;;22.30;76.80;;;;;;3966934;29;20055;-70
2022/07/12 07:55:31;;;;;;;0.30;0.30;;;22.30;76.70;;;;;;3957165;29;20153;-69
2022/07/12 07:57:53;;;;;;;0.30;0.30;;;22.40;76.60;;;;;;3957785;29;20055;-69
2022/07/12 08:00:16;;;;;;;0.00;0.00;;;22.40;76.50;;;;;;3958111;29;20059;-69
2022/07/12 08:02:39;;;;;;;0.10;0.10;;;22.40;76.40;;;;;;3957398;29;20062;-69
2022/07/12 08:05:01;;;;;;;2.05;0.52;;;22.50;76.20;;;;;;3957393;29;20128;-69
2022/07/12 08:07:23;;;;;;;0.30;0.30;;;22.50;76.20;;;;;;3957310;29;20067;-68
2022/07/12 08:10:05;;;;;;;0.00;0.00;;;22.50;76.00;;;;;;3958401;29;20755;-69
2022/07/12 08:12:28;;;;;;;0.05;0.05;;;22.60;75.90;;;;;;3963659;29;20061;-68
2022/07/12 08:14:50;;;;;;;0.00;0.00;;;22.60;75.80;;;;;;3958391;29;20096;-69
2022/07/12 08:17:12;;;;;;;0.38;0.38;;;22.60;75.70;;;;;;3965552;29;20483;-69
2022/07/12 08:19:35;;;;;;;0.00;0.00;;;22.60;75.60;;;;;;3943741;30;20048;-69
2022/07/12 08:21:57;;;;;;;0.00;0.00;;;22.70;75.60;;;;;;3956442;29;20414;-68
2022/07/12 08:24:19;;;;;;;0.00;0.00;;;22.70;75.60;;;;;;3956929;30;20062;-69
2022/07/12 08:26:41;;;;;;;0.03;0.03;;;22.70;75.50;;;;;;3956516;30;20062;-68
2022/07/12 08:29:03;;;;;;;0.00;0.00;;;22.70;75.30;;;;;;3971630;29;20057;-68
2022/07/12 08:31:25;;;;;;;0.45;0.17;;;22.70;75.20;;;;;;3971669;29;20119;-68
2022/07/12 08:33:47;;;;;;;0.00;0.00;;;22.80;75.30;;;;;;3970953;29;20464;-69
2022/07/12 08:36:10;;;;;;;0.88;0.88;;;22.80;76.10;;;;;;3968868;29;20495;-68
2022/07/12 08:38:33;;;;;;;0.00;0.00;;;22.80;75.00;;;;;;3955640;29;20523;-69
2022/07/12 08:40:56;;;;;;;0.00;0.00;;;22.80;75.90;;;;;;3964653;29;20059;-69
2022/07/12 08:43:18;;;;;;;0.30;0.30;;;22.90;75.10;;;;;;3969028;29;20107;-69
2022/07/12 08:45:40;;;;;;;0.00;0.00;;;22.90;75.00;;;;;;3968531;29;20173;-68
2022/07/12 08:48:03;;;;;;;0.15;0.15;;;22.90;74.90;;;;;;3969390;29;20054;-69
2022/07/12 08:50:27;;;;;;;0.10;0.10;;;22.90;74.80;;;;;;3968187;29;20205;-68
2022/07/12 08:52:52;;;;;;;0.00;0.00;;;22.90;74.70;;;;;;3968347;29;20204;-68
2022/07/12 08:55:22;;;;;;;0.10;0.10;;;23.00;74.90;;;;;;3968704;29;20114;-69
2022/07/12 08:57:44;;;;;;;0.00;0.00;;;23.00;74.90;;;;;;3954981;29;20103;-69
2022/07/12 09:00:08;;;;;;;0.00;0.00;;;23.00;74.70;;;;;;3969539;29;20137;-69
2022/07/12 09:02:43;;;;;;;0.00;0.00;;;23.00;74.70;;;;;;3954637;29;20055;-69
2022/07/12 09:05:09;;;;;;;0.13;0.13;;;23.00;74.70;;;;;;3969256;29;20071;-69
2022/07/12 09:07:31;;;;;;;4.28;0.45;;;23.10;74.70;;;;;;3967869;29;20131;-69
2022/07/12 09:10:03;;;;;;;0.52;0.52;;;23.10;74.60;;;;;;3960912;29;20146;-70
2022/07/12 09:12:26;;;;;;;0.00;0.00;;;23.10;74.70;;;;;;3968717;29;20062;-69
2022/07/12 09:14:53;;;;;;;0.00;0.00;;;23.10;75.50;;;;;;3968645;29;20059;-68
2022/07/12 09:17:22;;;;;;;0.00;0.00;;;23.10;74.60;;;;;;3968319;29;20070;-69
2022/07/12 09:19:55;;;;;;;0.47;0.47;;;23.20;74.60;;;;;;3967405;29;20058;-69
2022/07/12 09:22:18;;;;;;;0.00;0.00;;;23.20;74.40;;;;;;3968937;29;20123;-69
2022/07/12 09:24:40;;;;;;;0.20;0.20;;;23.20;74.40;;;;;;3968227;29;20070;-69
2022/07/12 09:27:05;;;;;;;0.00;0.00;;;23.20;74.40;;;;;;3963706;29;20504;-68
2022/07/12 09:29:27;;;;;;;0.00;0.00;;;23.30;74.40;;;;;;3939947;29;20056;-68
2022/07/12 09:37:10;;;;;;;0.00;0.00;;;23.30;74.40;;;;;;3968734;29;20211;-69
2022/07/12 09:39:33;;;;;;;0.75;0.38;;;23.30;74.40;;;;;;3964434;29;20055;-68
2022/07/12 09:41:56;;;;;;;0.00;0.00;;;23.30;74.40;;;;;;3968591;29;20055;-69
2022/07/12 09:44:21;;;;;;;0.20;0.20;;;23.40;74.40;;;;;;3967735;29;20051;-68
2022/07/12 09:46:44;;;;;;;0.00;0.00;;;23.40;74.40;;;;;;3968580;29;20058;-69
2022/07/12 09:49:06;;;;;;;0.00;0.00;;;23.40;74.20;;;;;;3968030;29;20065;-68
2022/07/12 09:51:34;;;;;;;1.35;0.40;;;23.40;74.00;;;;;;3968777;29;20055;-69
2022/07/12 09:53:59;;;;;;;0.00;0.00;;;23.40;74.00;;;;;;3968004;29;20085;-68
2022/07/12 09:56:23;;;;;;;0.00;0.00;;;23.50;74.00;;;;;;3968752;29;20119;-68
2022/07/12 09:58:52;;;;;;;0.00;0.00;;;23.50;74.00;;;;;;3967700;29;20103;-70
2022/07/12 10:01:16;;;;;;;0.40;0.40;;;23.50;73.90;;;;;;3968695;29;20415;-69
2022/07/12 10:03:42;;;;;;;0.00;0.00;;;23.50;73.70;;;;;;3968161;29;20547;-68
2022/07/12 10:06:05;;;;;;;0.00;0.00;;;23.60;73.80;;;;;;3968734;29;20448;-69
2022/07/12 10:08:27;;;;;;;0.10;0.10;;;23.60;73.70;;;;;;3967947;29;20448;-69
2022/07/12 10:10:50;;;;;;;0.13;0.13;;;23.60;73.70;;;;;;3968456;29;20062;-69
2022/07/12 10:13:12;;;;;;;0.00;0.00;;;23.60;73.50;;;;;;3968231;29;20062;-69
2022/07/12 10:15:35;;;;;;;0.00;0.00;;;23.70;73.40;;;;;;3968551;29;20055;-70
2022/07/12 10:18:01;;;;;;;0.00;0.00;;;23.70;73.30;;;;;;3967808;29;20065;-69
2022/07/12 10:20:26;;;;;;;0.30;0.30;;;23.70;73.10;;;;;;3968255;29;20112;-69
2022/07/12 10:22:49;;;;;;;0.10;0.10;;;23.80;73.00;;;;;;3962597;29;20058;-69
2022/07/12 10:25:30;;;;;;;0.00;0.00;;;23.80;72.90;;;;;;3968215;29;20116;-69
2022/07/12 10:27:52;;;;;;;0.10;0.10;;;23.90;73.80;;;;;;3968032;29;20062;-69
2022/07/12 10:30:18;;;;;;;0.00;0.00;;;23.90;72.70;;;;;;3968028;29;20206;-69
2022/07/12 10:32:43;;;;;;;0.00;0.00;;;23.90;72.60;;;;;;3968569;29;20224;-69
2022/07/12 10:35:12;;;;;;;0.00;0.00;;;24.00;72.50;;;;;;3967707;29;20062;-69
2022/07/12 10:37:35;;;;;;;0.00;0.00;;;24.00;72.40;;;;;;3968108;29;20084;-69
2022/07/12 10:40:12;;;;;;;0.00;0.00;;;24.10;72.50;;;;;;3968521;29;20066;-70
2022/07/12 10:42:35;;;;;;;0.00;0.00;;;24.10;72.30;;;;;;3968140;29;20053;-70
2022/07/12 10:45:12;;;;;;;0.00;0.00;;;24.10;72.10;;;;;;3967816;29;20524;-69
2022/07/12 10:47:54;;;;;;;0.00;0.00;;;24.10;71.90;;;;;;3970492;29;20053;-69
2022/07/12 10:50:18;;;;;;;0.00;0.00;;;24.20;72.10;;;;;;3970615;29;20043;-70
2022/07/12 10:52:40;;;;;;;0.03;0.03;;;24.20;71.90;;;;;;3970638;29;20081;-69
2022/07/12 10:55:18;;;;;;;0.10;0.10;;;24.20;71.90;;;;;;3971282;29;20058;-70
2022/07/12 10:57:43;;;;;;;0.10;0.10;;;24.20;71.70;;;;;;3971117;29;20062;-65
2022/07/12 11:00:07;;;;;;;0.00;0.00;;;24.20;71.60;;;;;;3956293;29;20134;-64
2022/07/12 11:02:29;;;;;;;0.10;0.10;;;24.20;71.30;;;;;;3970341;29;20069;-64
2022/07/12 11:04:51;;;;;;;0.00;0.00;;;24.30;71.10;;;;;;3970409;29;20101;-64
2022/07/12 11:07:18;;;;;;;0.10;0.10;;;24.30;71.90;;;;;;3969858;29;20055;-66
2022/07/12 11:09:42;;;;;;;0.00;0.00;;;24.30;71.00;;;;;;3970475;29;20510;-64
2022/07/12 11:12:07;;;;;;;0.00;0.00;;;24.30;70.70;;;;;;3968815;29;20080;-65
2022/07/12 11:14:32;;;;;;;0.00;0.00;;;24.40;70.70;;;;;;3970393;29;20054;-64
2022/07/12 11:16:56;;;;;;;0.00;0.00;;;24.40;70.70;;;;;;3965523;29;20050;-65
2022/07/12 11:19:23;;;;;;;0.65;0.30;;;24.40;70.60;;;;;;3970382;29;20102;-64
2022/07/12 11:21:46;;;;;;;0.00;0.00;;;24.40;70.50;;;;;;3969907;29;20069;-64
2022/07/12 11:24:18;;;;;;;0.00;0.00;;;24.40;70.50;;;;;;3964513;29;20064;-64
2022/07/12 11:26:40;;;;;;;0.10;0.10;;;24.50;70.50;;;;;;3969991;29;20147;-64
2022/07/12 11:29:03;;;;;;;0.00;0.00;;;24.40;70.30;;;;;;3970059;29;20096;-65
2022/07/12 11:31:26;;;;;;;0.00;0.00;;;24.50;70.30;;;;;;3956776;29;20062;-64
2022/07/12 11:33:50;;;;;;;0.00;0.00;;;24.50;70.30;;;;;;3970515;29;20065;-64
2022/07/12 11:36:13;;;;;;;0.35;0.35;;;24.50;70.20;;;;;;3968874;29;20135;-64
2022/07/12 11:38:36;;;;;;;0.00;0.00;;;24.50;70.10;;;;;;3969393;29;20062;-64
2022/07/12 11:41:07;;;;;;;0.00;0.00;;;24.50;70.10;;;;;;3970399;29;20055;-64
2022/07/12 11:43:31;;;;;;;0.00;0.00;;;24.50;70.00;;;;;;3969742;29;20061;-64
2022/07/12 11:45:53;;;;;;;0.00;0.00;;;24.50;69.90;;;;;;3970185;29;20173;-64
2022/07/12 11:48:16;;;;;;;0.30;0.30;;;24.60;70.00;;;;;;3970173;29;20463;-64
2022/07/12 11:50:38;;;;;;;0.00;0.00;;;24.60;69.90;;;;;;3963453;29;20138;-65
2022/07/12 11:53:00;;;;;;;0.08;0.08;;;24.60;70.00;;;;;;3969483;29;20514;-65
2022/07/12 11:55:23;;;;;;;0.00;0.00;;;24.60;69.90;;;;;;3970113;29;20400;-64
2022/07/12 11:57:46;;;;;;;0.43;0.43;;;24.60;69.90;;;;;;3968588;29;20070;-65
2022/07/12 12:00:19;;;;;;;0.00;0.00;;;24.60;69.90;;;;;;3969995;29;20062;-65
2022/07/12 12:02:41;;;;;;;0.00;0.00;;;24.70;69.90;;;;;;3956996;30;20091;-64
2022/07/12 12:05:05;;;;;;;0.55;0.55;;;24.70;69.90;;;;;;3957843;30;20414;-64
2022/07/12 12:07:28;;;;;;;0.00;0.00;;;24.70;70.00;;;;;;3943443;29;20079;-63
2022/07/12 12:10:00;;;;;;;0.00;0.00;;;24.70;70.00;;;;;;3957689;29;20055;-65
2022/07/12 12:12:22;;;;;;;0.05;0.05;;;24.80;70.10;;;;;;3960645;29;20064;-65
2022/07/12 12:14:46;;;;;;;0.00;0.00;;;24.80;70.30;;;;;;3971734;29;20062;-63
2022/07/12 12:17:13;;;;;;;0.10;0.10;;;24.80;70.10;;;;;;3963100;29;20062;-64
2022/07/12 12:19:42;;;;;;;0.00;0.00;;;24.80;69.90;;;;;;3956704;29;20059;-65
2022/07/12 12:22:05;;;;;;;0.00;0.00;;;24.80;69.60;;;;;;3957312;29;20538;-65
2022/07/12 12:24:27;;;;;;;0.00;0.00;;;24.80;69.20;;;;;;3943879;29;20051;-65
2022/07/12 12:26:49;;;;;;;0.00;0.00;;;24.90;69.10;;;;;;3957689;29;20070;-65
2022/07/12 12:29:11;;;;;;;0.00;0.00;;;24.90;68.80;;;;;;3956739;29;20070;-64
2022/07/12 12:31:34;;;;;;;0.00;0.00;;;24.90;68.70;;;;;;3956784;29;20142;-64
2022/07/12 12:33:58;;;;;;;0.00;0.00;;;24.90;68.50;;;;;;3956909;29;20066;-64
2022/07/12 12:36:22;;;;;;;0.13;0.13;;;24.90;68.20;;;;;;3957979;29;20100;-64
2022/07/12 12:38:45;;;;;;;0.00;0.00;;;24.90;68.00;;;;;;3958417;29;20120;-64